createdAt,value
2018-02-10T00:01:46.552Z,96.20
2018-02-10T00:04:14.081Z,95.93
2018-02-10T00:06:41.630Z,100.47
2018-02-10T00:09:09.168Z,107.50
2018-02-10T00:11:36.707Z,104.67
2018-02-10T00:14:04.245Z,94.93
2018-02-10T00:16:31.796Z,97.20
2018-02-10T00:18:59.321Z,97.67
2018-02-10T00:21:26.872Z,116.00
2018-02-10T00:23:55.184Z,101.20
2018-02-10T00:26:22.727Z,97.73
2018-02-10T00:28:50.255Z,101.10
2018-02-10T00:31:17.837Z,94.10
2018-02-10T00:33:45.371Z,99.23
2018-02-10T00:36:12.909Z,101.97
2018-02-10T00:38:40.460Z,99.77
2018-02-10T00:41:08.237Z,104.43
2018-02-10T00:43:35.792Z,99.67
2018-02-10T00:46:03.320Z,93.43
2018-02-10T00:48:30.877Z,109.47
2018-02-10T00:50:58.400Z,104.10
2018-02-10T00:53:26.729Z,105.93
2018-02-10T00:55:54.281Z,97.97
2018-02-10T00:58:21.832Z,100.53
2018-02-10T01:00:49.390Z,107.77
2018-02-10T01:03:16.949Z,100.17
2018-02-10T01:05:44.489Z,102.67
2018-02-10T01:08:12.056Z,95.33
2018-02-10T01:10:39.589Z,109.27
2018-02-10T01:13:07.908Z,103.97
2018-02-10T01:15:35.445Z,103.23
2018-02-10T01:18:03.004Z,111.13
2018-02-10T01:20:30.541Z,105.97
2018-02-10T01:22:58.113Z,109.50
2018-02-10T01:25:25.648Z,100.23
2018-02-10T01:27:53.936Z,99.60
2018-02-10T01:30:21.503Z,105.40
2018-02-10T01:32:49.055Z,92.07
2018-02-10T01:35:16.617Z,112.87
2018-02-10T01:37:44.148Z,96.10
2018-02-10T01:40:12.477Z,99.87
2018-02-10T01:42:40.008Z,96.47
2018-02-10T01:45:07.573Z,109.83
2018-02-10T01:47:35.101Z,97.73
2018-02-10T01:50:14.438Z,96.40
2018-02-10T01:52:42.754Z,98.57
2018-02-10T01:55:10.306Z,105.27
2018-02-10T01:57:37.844Z,95.10
2018-02-10T02:00:06.228Z,102.63
2018-02-10T02:02:33.769Z,97.60
2018-02-10T02:05:01.336Z,100.47
2018-02-10T02:07:29.633Z,103.30
2018-02-10T02:09:57.204Z,109.33
2018-02-10T02:12:25.516Z,110.43
2018-02-10T02:14:53.065Z,100.33
2018-02-10T02:17:20.604Z,93.20
2018-02-10T02:19:48.161Z,108.43
2018-02-10T02:22:15.700Z,104.83
2018-02-10T02:24:43.290Z,94.17
2018-02-10T02:27:10.817Z,105.90
2018-02-10T02:29:38.378Z,107.63
2018-02-10T02:32:05.933Z,101.13
2018-02-10T02:34:33.461Z,97.53
2018-02-10T02:37:01.798Z,109.30
2018-02-10T02:39:29.329Z,98.20
2018-02-10T02:41:56.901Z,112.93
2018-02-10T02:44:24.441Z,116.73
2018-02-10T02:46:51.999Z,103.17
2018-02-10T02:49:19.533Z,103.93
2018-02-10T02:51:47.853Z,113.30
2018-02-10T02:54:15.416Z,105.17
2018-02-10T02:56:42.983Z,119.77
2018-02-10T02:59:10.518Z,105.87
2018-02-10T03:01:38.096Z,100.07
2018-02-10T03:04:05.638Z,105.03
2018-02-10T03:06:33.196Z,105.50
2018-02-10T03:09:00.735Z,108.80
2018-02-10T03:11:29.060Z,94.13
2018-02-10T03:13:56.588Z,105.47
2018-02-10T03:16:24.137Z,104.23
2018-02-10T03:18:51.668Z,120.50
2018-02-10T03:21:19.223Z,113.80
2018-02-10T03:23:46.764Z,129.17
2018-02-10T03:26:14.308Z,95.43
2018-02-10T03:28:41.845Z,103.50
2018-02-10T03:31:09.407Z,104.73
2018-02-10T03:33:36.944Z,115.17
2018-02-10T03:36:04.501Z,106.40
2018-02-10T03:38:32.030Z,106.00
2018-02-10T03:40:59.940Z,117.13
2018-02-10T03:43:27.476Z,114.47
2018-02-10T03:45:55.801Z,113.83
2018-02-10T03:48:23.332Z,113.20
2018-02-10T03:50:50.906Z,111.90
2018-02-10T03:53:18.435Z,109.73
2018-02-10T03:55:45.963Z,109.13
2018-02-10T03:58:13.528Z,100.87
2018-02-10T04:00:41.070Z,105.03
2018-02-10T04:03:08.633Z,102.67
2018-02-10T04:05:36.179Z,114.90
2018-02-10T04:08:03.738Z,103.07
2018-02-10T04:10:31.265Z,105.00
2018-02-10T04:12:58.808Z,114.03
2018-02-10T04:15:26.389Z,112.80
2018-02-10T04:17:53.941Z,115.83
2018-02-10T04:20:21.473Z,117.07
2018-02-10T04:22:49.814Z,98.77
2018-02-10T04:25:17.348Z,112.47
2018-02-10T04:27:44.904Z,103.30
2018-02-10T04:30:12.427Z,97.13
2018-02-10T04:32:40.738Z,97.53
2018-02-10T04:35:08.276Z,100.43
2018-02-10T04:37:35.848Z,105.97
2018-02-10T04:40:03.385Z,102.83
2018-02-10T04:42:30.935Z,110.40
2018-02-10T04:44:59.227Z,124.93
2018-02-10T04:47:26.792Z,114.33
2018-02-10T04:49:54.325Z,109.87
2018-02-10T04:52:22.649Z,101.90
2018-02-10T04:54:50.188Z,103.00
2018-02-10T04:57:17.747Z,100.07
2018-02-10T04:59:45.272Z,103.80
2018-02-10T05:02:13.593Z,101.43
2018-02-10T05:04:41.136Z,116.53
2018-02-10T05:07:08.682Z,99.23
2018-02-10T05:09:36.225Z,104.43
2018-02-10T05:12:04.560Z,112.27
2018-02-10T05:14:32.088Z,99.77
2018-02-10T05:16:59.650Z,113.73
2018-02-10T05:19:27.200Z,111.90
2018-02-10T05:21:54.752Z,110.10
2018-02-10T05:24:22.284Z,108.40
2018-02-10T05:26:50.607Z,112.07
2018-02-10T05:29:18.138Z,97.40
2018-02-10T05:31:46.524Z,111.53
2018-02-10T05:34:14.064Z,112.67
2018-02-10T05:36:42.376Z,126.33
2018-02-10T05:39:10.673Z,110.07
2018-02-10T05:41:38.225Z,112.27
2018-02-10T05:44:05.756Z,116.60
2018-02-10T05:46:33.295Z,112.17
2018-02-10T05:49:05.746Z,108.70
2018-02-10T05:51:34.366Z,107.67
2018-02-10T05:54:01.941Z,106.47
2018-02-10T05:56:29.481Z,108.50
2018-02-10T05:58:57.043Z,106.67
2018-02-10T06:01:24.577Z,106.40
2018-02-10T06:03:52.914Z,105.60
2018-02-10T06:06:20.448Z,102.80
2018-02-10T06:08:48.772Z,99.80
2018-02-10T06:11:16.308Z,106.47
2018-02-10T06:13:43.872Z,102.40
2018-02-10T06:16:11.418Z,107.00
2018-02-10T06:18:38.968Z,106.23
2018-02-10T06:21:06.502Z,108.70
2018-02-10T06:23:34.048Z,113.27
2018-02-10T06:26:02.345Z,116.67
2018-02-10T06:28:29.905Z,96.97
2018-02-10T06:30:57.460Z,101.63
2018-02-10T06:33:25.013Z,95.70
2018-02-10T06:35:52.536Z,94.87
2018-02-10T06:38:20.085Z,104.67
2018-02-10T06:40:47.617Z,103.90
2018-02-10T06:43:15.173Z,94.70
2018-02-10T06:45:42.710Z,108.37
2018-02-10T06:48:10.269Z,98.73
2018-02-10T06:50:37.818Z,103.33
2018-02-10T06:53:05.361Z,150.67
2018-02-10T06:55:33.683Z,95.80
2018-02-10T06:58:01.246Z,100.20
2018-02-10T07:00:28.780Z,98.70
2018-02-10T07:02:56.348Z,109.50
2018-02-10T07:05:23.876Z,104.00
2018-02-10T07:07:52.241Z,109.50
2018-02-10T07:10:19.768Z,111.47
2018-02-10T07:12:47.305Z,106.27
2018-02-10T07:15:14.867Z,117.60
2018-02-10T07:17:42.397Z,94.43
2018-02-10T07:20:09.981Z,100.63
2018-02-10T07:22:37.520Z,112.33
2018-02-10T07:25:05.078Z,110.03
2018-02-10T07:27:32.604Z,100.43
2018-02-10T07:30:00.170Z,94.93
2018-02-10T07:32:28.477Z,108.53
2018-02-10T07:34:56.040Z,98.40
2018-02-10T07:37:23.576Z,101.77
2018-02-10T07:39:51.881Z,93.83
2018-02-10T07:42:19.405Z,95.03
2018-02-10T07:44:47.717Z,87.90
2018-02-10T07:47:15.235Z,94.73
2018-02-10T07:49:51.694Z,107.27
2018-02-10T07:52:19.240Z,87.47
2018-02-10T07:54:47.584Z,91.90
2018-02-10T07:57:15.103Z,98.27
2018-02-10T07:59:43.420Z,95.17
2018-02-10T08:02:10.932Z,88.50
2018-02-10T08:04:39.292Z,88.07
2018-02-10T08:07:06.812Z,86.47
2018-02-10T08:09:34.329Z,91.80
2018-02-10T08:12:02.646Z,87.67
2018-02-10T08:14:30.175Z,79.90
2018-02-10T08:16:57.717Z,95.23
2018-02-10T08:19:26.001Z,83.27
2018-02-10T08:21:54.300Z,85.53
2018-02-10T08:24:21.809Z,87.17
2018-02-10T08:26:49.349Z,89.53
2018-02-10T08:29:16.873Z,91.27
2018-02-10T08:31:44.424Z,92.00
2018-02-10T08:34:11.944Z,90.00
2018-02-10T08:36:39.505Z,129.40
2018-02-10T08:39:07.031Z,90.70
2018-02-10T08:41:34.574Z,89.87
2018-02-10T08:44:02.088Z,84.23
2018-02-10T08:46:30.403Z,91.30
2018-02-10T08:48:57.928Z,89.43
2018-02-10T08:51:26.242Z,82.10
2018-02-10T08:53:53.766Z,95.27
2018-02-10T08:56:22.080Z,81.77
2018-02-10T08:58:49.615Z,95.87
2018-02-10T09:01:17.182Z,87.93
2018-02-10T09:03:44.706Z,82.13
2018-02-10T09:06:12.988Z,85.70
2018-02-10T09:08:41.304Z,86.50
2018-02-10T09:11:08.844Z,80.70
2018-02-10T09:13:36.386Z,84.83
2018-02-10T09:16:04.681Z,84.53
2018-02-10T09:18:32.228Z,80.80
2018-02-10T09:20:59.813Z,89.80
2018-02-10T09:23:27.369Z,89.30
2018-02-10T09:25:54.986Z,88.43
2018-02-10T09:28:22.502Z,78.30
2018-02-10T09:30:50.034Z,78.07
2018-02-10T09:33:17.590Z,75.00
2018-02-10T09:35:45.124Z,84.57
2018-02-10T09:38:13.438Z,86.23
2018-02-10T09:40:40.977Z,75.83
2018-02-10T09:43:08.535Z,80.07
2018-02-10T09:45:36.052Z,80.77
2018-02-10T09:48:03.593Z,90.33
2018-02-10T09:50:31.118Z,75.10
2018-02-10T09:52:58.668Z,76.73
2018-02-10T09:55:26.192Z,70.73
2018-02-10T09:57:53.745Z,78.37
2018-02-10T10:00:21.269Z,74.67
2018-02-10T10:02:48.784Z,74.20
2018-02-10T10:05:17.093Z,78.20
2018-02-10T10:07:44.618Z,77.37
2018-02-10T10:10:12.934Z,75.60
2018-02-10T10:12:40.453Z,78.63
2018-02-10T10:15:08.766Z,81.17
2018-02-10T10:17:36.312Z,81.37
2018-02-10T10:20:08.880Z,77.30
2018-02-10T10:22:36.404Z,68.33
2018-02-10T10:25:03.957Z,82.80
2018-02-10T10:27:31.488Z,90.53
2018-02-10T10:29:59.037Z,78.50
2018-02-10T10:32:26.556Z,77.70
2018-02-10T10:34:54.880Z,82.10
2018-02-10T10:37:22.434Z,75.17
2018-02-10T10:39:49.988Z,80.73
2018-02-10T10:42:17.539Z,79.47
2018-02-10T10:44:45.097Z,79.67
2018-02-10T10:47:12.617Z,80.50
2018-02-10T10:49:40.966Z,84.30
2018-02-10T10:52:08.493Z,77.53
2018-02-10T10:54:36.036Z,83.40
2018-02-10T10:57:03.601Z,77.43
2018-02-10T10:59:31.177Z,78.00
2018-02-10T11:01:58.716Z,75.30
2018-02-10T11:04:26.240Z,77.87
2018-02-10T11:06:53.786Z,84.53
2018-02-10T11:09:21.506Z,84.07
2018-02-10T11:11:49.087Z,79.13
2018-02-10T11:14:16.618Z,79.80
2018-02-10T11:16:44.165Z,80.10
2018-02-10T11:19:11.693Z,85.53
2018-02-10T11:21:40.005Z,85.23
2018-02-10T11:24:07.524Z,79.17
2018-02-10T11:26:35.107Z,80.40
2018-02-10T11:29:02.636Z,82.83
2018-02-10T11:31:32.881Z,81.20
2018-02-10T11:34:01.170Z,77.73
2018-02-10T11:36:28.741Z,89.73
2018-02-10T11:38:56.279Z,83.50
2018-02-10T11:41:23.829Z,85.20
2018-02-10T11:43:51.424Z,86.93
2018-02-10T11:46:18.996Z,89.77
2018-02-10T11:48:46.525Z,96.53
2018-02-10T11:51:14.086Z,81.80
2018-02-10T11:53:41.624Z,90.70
2018-02-10T11:56:09.936Z,81.97
2018-02-10T11:58:37.466Z,87.13
2018-02-10T12:01:05.014Z,87.87
2018-02-10T12:03:33.386Z,83.67
2018-02-10T12:06:01.702Z,88.70
2018-02-10T12:08:29.257Z,101.97
2018-02-10T12:10:56.821Z,127.43
2018-02-10T12:13:24.360Z,91.67
2018-02-10T12:15:51.888Z,75.80
2018-02-10T12:18:19.456Z,80.63
2018-02-10T12:20:47.793Z,85.83
2018-02-10T12:23:15.341Z,87.83
2018-02-10T12:25:42.870Z,79.73
2018-02-10T12:28:10.449Z,90.80
2018-02-10T12:30:37.974Z,96.30
2018-02-10T12:33:06.292Z,82.17
2018-02-10T12:35:33.813Z,93.80
2018-02-10T12:38:01.357Z,80.20
2018-02-10T12:40:29.646Z,80.73
2018-02-10T12:42:57.971Z,82.57
2018-02-10T12:45:25.504Z,88.50
2018-02-10T12:48:05.332Z,91.60
2018-02-10T12:50:32.864Z,86.03
2018-02-10T12:53:00.421Z,83.00
2018-02-10T12:55:27.949Z,91.50
2018-02-10T12:57:55.508Z,81.17
2018-02-10T13:00:23.029Z,90.97
2018-02-10T13:02:50.589Z,76.60
2018-02-10T13:05:18.120Z,86.77
2018-02-10T13:07:46.437Z,99.07
2018-02-10T13:10:13.974Z,85.83
2018-02-10T13:12:41.532Z,88.27
2018-02-10T13:15:09.068Z,83.73
2018-02-10T13:17:37.388Z,86.10
2018-02-10T13:20:04.921Z,91.10
2018-02-10T13:22:32.489Z,97.67
2018-02-10T13:25:00.629Z,85.00
2018-02-10T13:27:28.230Z,86.30
2018-02-10T13:29:55.764Z,97.13
2018-02-10T13:32:23.321Z,87.30
2018-02-10T13:34:51.626Z,98.47
2018-02-10T13:37:19.933Z,91.77
2018-02-10T13:39:47.461Z,91.67
2018-02-10T13:42:15.010Z,83.97
2018-02-10T13:44:42.544Z,94.60
2018-02-10T13:47:10.832Z,90.10
2018-02-10T13:49:38.371Z,80.30
2018-02-10T13:52:13.254Z,84.30
2018-02-10T13:54:43.536Z,75.10
2018-02-10T13:57:11.828Z,77.37
2018-02-10T13:59:39.377Z,79.67
2018-02-10T14:02:06.928Z,79.57
2018-02-10T14:04:36.105Z,74.13
2018-02-10T14:07:03.648Z,81.73
2018-02-10T14:09:31.202Z,85.67
2018-02-10T14:11:58.760Z,84.27
2018-02-10T14:14:26.312Z,79.87
2018-02-10T14:16:54.621Z,81.20
2018-02-10T14:19:22.956Z,83.90
2018-02-10T14:21:50.524Z,73.77
2018-02-10T14:24:18.078Z,75.97
2018-02-10T14:26:45.600Z,77.47
2018-02-10T14:29:13.149Z,71.20
2018-02-10T14:31:41.437Z,71.47
2018-02-10T14:34:08.973Z,77.07
2018-02-10T14:36:37.270Z,79.87
2018-02-10T14:39:04.824Z,77.00
2018-02-10T14:41:32.356Z,66.23
2018-02-10T14:44:00.681Z,79.70
2018-02-10T14:46:28.209Z,78.57
2018-02-10T14:48:55.760Z,80.47
2018-02-10T14:51:26.192Z,75.87
2018-02-10T14:53:54.502Z,69.23
2018-02-10T14:56:22.028Z,75.60
2018-02-10T14:58:49.580Z,67.20
2018-02-10T15:01:17.877Z,67.43
2018-02-10T15:03:46.579Z,79.93
2018-02-10T15:06:14.135Z,74.67
2018-02-10T15:08:42.461Z,82.73
2018-02-10T15:11:09.980Z,83.93
2018-02-10T15:13:39.531Z,80.03
2018-02-10T15:16:07.055Z,74.20
2018-02-10T15:18:34.606Z,72.83
2018-02-10T15:21:02.129Z,65.47
2018-02-10T15:23:29.845Z,71.17
2018-02-10T15:25:57.383Z,74.93
2018-02-10T15:28:24.941Z,70.37
2018-02-10T15:31:08.053Z,69.57
2018-02-10T15:33:47.396Z,74.07
2018-02-10T15:36:14.927Z,76.03
2018-02-10T15:38:42.489Z,69.57
2018-02-10T15:41:16.223Z,70.50
2018-02-10T15:43:43.790Z,71.17
2018-02-10T15:46:11.343Z,63.50
2018-02-10T15:48:41.773Z,69.37
2018-02-10T15:51:09.322Z,72.53
2018-02-10T15:53:37.648Z,71.03
2018-02-10T15:56:13.377Z,85.73
2018-02-10T15:58:40.933Z,77.80
2018-02-10T16:01:10.406Z,70.37
2018-02-10T16:03:39.391Z,71.20
2018-02-10T16:06:06.917Z,73.50
2018-02-10T16:08:36.227Z,67.00
2018-02-10T16:11:03.749Z,73.37
2018-02-10T16:13:31.331Z,75.37
2018-02-10T16:15:59.618Z,76.60
2018-02-10T16:18:27.145Z,72.37
2018-02-10T16:20:55.477Z,70.37
2018-02-10T16:23:23.002Z,64.43
2018-02-10T16:25:50.596Z,74.20
2018-02-10T16:28:18.133Z,78.93
2018-02-10T16:30:45.685Z,70.50
2018-02-10T16:33:14.086Z,68.83
2018-02-10T16:35:41.634Z,76.23
2018-02-10T16:38:09.166Z,79.77
2018-02-10T16:40:37.484Z,72.83
2018-02-10T16:43:05.038Z,72.67
2018-02-10T16:45:32.617Z,70.07
2018-02-10T16:48:00.128Z,76.80
2018-02-10T16:50:28.436Z,71.50
2018-02-10T16:52:55.966Z,65.93
2018-02-10T16:55:23.512Z,75.93
2018-02-10T16:57:51.794Z,69.63
2018-02-10T17:00:20.113Z,76.23
2018-02-10T17:02:47.963Z,72.27
2018-02-10T17:05:15.512Z,74.53
2018-02-10T17:07:43.047Z,71.07
2018-02-10T17:10:11.357Z,72.60
2018-02-10T17:12:42.009Z,77.10
2018-02-10T17:15:09.561Z,65.43
2018-02-10T17:17:37.097Z,77.47
2018-02-10T17:20:04.648Z,73.33
2018-02-10T17:22:32.168Z,68.00
2018-02-10T17:24:59.720Z,71.80
2018-02-10T17:27:27.241Z,68.67
2018-02-10T17:29:54.860Z,68.27
2018-02-10T17:32:23.173Z,79.17
2018-02-10T17:34:50.711Z,71.40
2018-02-10T17:37:18.270Z,62.70
2018-02-10T17:39:45.797Z,67.53
2018-02-10T17:42:13.349Z,72.53
2018-02-10T17:44:40.881Z,67.17
2018-02-10T17:47:08.424Z,69.57
2018-02-10T17:49:35.942Z,72.03
2018-02-10T17:52:04.270Z,73.90
2018-02-10T17:54:31.799Z,79.13
2018-02-10T17:56:59.352Z,75.93
2018-02-10T17:59:26.878Z,68.63
2018-02-10T18:01:55.229Z,69.13
2018-02-10T18:04:22.758Z,73.20
2018-02-10T18:06:50.311Z,78.57
2018-02-10T18:09:17.837Z,73.47
2018-02-10T18:11:45.400Z,84.43
2018-02-10T18:14:12.936Z,77.30
2018-02-10T18:16:40.705Z,74.13
2018-02-10T18:19:09.041Z,84.27
2018-02-10T18:21:36.577Z,86.37
2018-02-10T18:24:04.128Z,78.03
2018-02-10T18:26:32.425Z,78.90
2018-02-10T18:29:00.745Z,88.13
2018-02-10T18:31:28.269Z,69.87
2018-02-10T18:33:55.835Z,73.60
2018-02-10T18:36:23.369Z,71.70
2018-02-10T18:38:50.920Z,82.53
2018-02-10T18:41:18.457Z,76.40
2018-02-10T18:43:46.786Z,72.67
2018-02-10T18:46:14.325Z,81.23
2018-02-10T18:48:41.909Z,78.50
2018-02-10T18:51:09.467Z,65.83
2018-02-10T18:53:37.013Z,80.60
2018-02-10T18:56:07.579Z,72.47
2018-02-10T18:58:35.930Z,71.90
2018-02-10T19:01:03.452Z,75.20
2018-02-10T19:03:31.009Z,75.00
2018-02-10T19:05:59.323Z,70.43
2018-02-10T19:08:26.868Z,77.57
2018-02-10T19:10:54.380Z,74.03
2018-02-10T19:13:22.700Z,85.03
2018-02-10T19:15:50.229Z,74.67
2018-02-10T19:18:18.536Z,72.67
2018-02-10T19:20:46.077Z,69.03
2018-02-10T19:23:13.605Z,72.30
2018-02-10T19:25:41.145Z,67.83
2018-02-10T19:28:08.669Z,87.97
2018-02-10T19:30:36.214Z,78.00
2018-02-10T19:33:03.741Z,76.50
2018-02-10T19:35:31.305Z,76.23
2018-02-10T19:37:59.590Z,77.87
2018-02-10T19:40:27.902Z,85.33
2018-02-10T19:42:55.425Z,77.30
2018-02-10T19:45:23.727Z,73.73
2018-02-10T19:47:51.253Z,77.67
2018-02-10T19:50:19.569Z,63.50
2018-02-10T19:52:47.085Z,76.00
2018-02-10T19:55:15.413Z,107.07
2018-02-10T19:57:42.948Z,80.37
2018-02-10T20:00:10.508Z,76.63
2018-02-10T20:02:38.058Z,70.87
2018-02-10T20:05:05.634Z,71.53
2018-02-10T20:07:33.156Z,69.43
2018-02-10T20:10:01.494Z,79.27
2018-02-10T20:12:29.037Z,79.27
2018-02-10T20:14:56.589Z,71.57
2018-02-10T20:17:24.152Z,72.20
2018-02-10T20:19:51.684Z,76.57
2018-02-10T20:22:19.294Z,79.00
2018-02-10T20:24:46.826Z,67.73
2018-02-10T20:27:14.418Z,70.40
2018-02-10T20:29:41.990Z,69.17
2018-02-10T20:32:10.327Z,71.93
2018-02-10T20:34:37.891Z,80.97
2018-02-10T20:37:05.453Z,77.73
2018-02-10T20:39:33.013Z,71.83
2018-02-10T20:42:00.568Z,75.17
2018-02-10T20:44:28.112Z,77.03
2018-02-10T20:46:55.694Z,72.83
2018-02-10T20:49:23.230Z,71.33
2018-02-10T20:51:50.811Z,74.43
2018-02-10T20:54:18.347Z,72.50
2018-02-10T20:56:45.898Z,64.57
2018-02-10T20:59:13.437Z,69.87
2018-02-10T21:01:41.020Z,70.90
2018-02-10T21:04:08.585Z,78.00
2018-02-10T21:06:36.141Z,73.50
2018-02-10T21:09:03.681Z,79.33
2018-02-10T21:11:31.282Z,73.47
2018-02-10T21:13:58.830Z,70.80
2018-02-10T21:16:26.372Z,72.63
2018-02-10T21:18:53.938Z,73.50
2018-02-10T21:21:21.486Z,77.60
2018-02-10T21:23:49.036Z,75.33
2018-02-10T21:26:16.560Z,83.97
2018-02-10T21:28:44.893Z,67.17
2018-02-10T21:31:12.435Z,76.90
2018-02-10T21:33:39.981Z,77.50
2018-02-10T21:36:07.524Z,82.63
2018-02-10T21:38:35.837Z,75.90
2018-02-10T21:41:03.365Z,88.57
2018-02-10T21:43:30.969Z,77.60
2018-02-10T21:45:58.500Z,73.17
2018-02-10T21:48:26.840Z,76.43
2018-02-10T21:50:55.152Z,83.13
2018-02-10T21:53:22.697Z,73.00
2018-02-10T21:55:50.249Z,72.93
2018-02-10T21:58:18.590Z,71.60
2018-02-10T22:00:46.121Z,83.47
2018-02-10T22:03:13.667Z,72.07
2018-02-10T22:05:41.193Z,70.40
2018-02-10T22:08:09.505Z,69.47
2018-02-10T22:10:37.029Z,77.57
2018-02-10T22:13:05.356Z,69.00
2018-02-10T22:15:32.888Z,68.73
2018-02-10T22:18:00.437Z,69.10
2018-02-10T22:20:27.973Z,76.03
2018-02-10T22:22:56.338Z,73.23
2018-02-10T22:25:23.824Z,72.87
2018-02-10T22:27:51.377Z,75.43
2018-02-10T22:30:19.678Z,74.77
2018-02-10T22:32:47.216Z,75.13
2018-02-10T22:35:14.744Z,72.07
2018-02-10T22:37:42.298Z,74.67
2018-02-10T22:40:09.825Z,77.17
2018-02-10T22:42:37.361Z,70.90
2018-02-10T22:45:04.876Z,82.17
2018-02-10T22:47:32.438Z,77.23
2018-02-10T22:49:59.966Z,82.00
2018-02-10T22:52:27.527Z,75.40
2018-02-10T22:54:55.056Z,81.60
2018-02-10T22:57:22.700Z,80.87
2018-02-10T22:59:50.266Z,79.23
2018-02-10T23:02:17.855Z,71.60
2018-02-10T23:04:45.459Z,82.83
2018-02-10T23:07:13.798Z,81.77
2018-02-10T23:09:41.343Z,70.83
2018-02-10T23:12:08.930Z,70.90
2018-02-10T23:14:36.498Z,77.23
2018-02-10T23:17:04.121Z,79.03
2018-02-10T23:19:31.762Z,79.27
2018-02-10T23:21:59.354Z,73.00
2018-02-10T23:24:26.919Z,87.10
2018-02-10T23:26:54.509Z,77.90
2018-02-10T23:29:22.825Z,76.97
2018-02-10T23:31:50.393Z,70.63
2018-02-10T23:34:17.937Z,77.37
2018-02-10T23:36:45.525Z,89.33
2018-02-10T23:39:13.079Z,75.33
2018-02-10T23:41:40.631Z,81.43
2018-02-10T23:44:08.214Z,79.90
2018-02-10T23:46:35.833Z,72.97
2018-02-10T23:49:03.399Z,77.83
2018-02-10T23:51:31.009Z,82.10
2018-02-10T23:53:59.333Z,91.17
2018-02-10T23:56:26.907Z,77.80
2018-02-10T23:58:54.478Z,92.43
